createdAt,value
2019-03-19T00:01:04.546Z,3.67
2019-03-19T00:03:31.996Z,3.70
2019-03-19T00:06:01.236Z,3.43
2019-03-19T00:08:28.997Z,3.90
2019-03-19T00:10:56.452Z,3.60
2019-03-19T00:13:23.932Z,4.00
2019-03-19T00:15:51.441Z,4.23
2019-03-19T00:18:18.904Z,4.07
2019-03-19T00:20:46.381Z,4.13
2019-03-19T00:23:13.867Z,4.67
2019-03-19T00:25:41.342Z,4.53
2019-03-19T00:28:08.795Z,4.37
2019-03-19T00:30:36.280Z,4.40
2019-03-19T00:33:03.993Z,5.67
2019-03-19T00:35:31.481Z,4.70
2019-03-19T00:37:58.982Z,4.83
2019-03-19T00:40:26.439Z,5.10
2019-03-19T00:42:53.931Z,5.20
2019-03-19T00:45:21.407Z,4.57
2019-03-19T00:47:48.889Z,4.50
2019-03-19T00:50:16.405Z,4.47
2019-03-19T00:52:43.887Z,4.27
2019-03-19T00:55:11.703Z,4.50
2019-03-19T00:57:39.327Z,4.23
2019-03-19T01:00:07.015Z,5.00
2019-03-19T01:02:34.475Z,4.90
2019-03-19T01:05:02.007Z,5.10
2019-03-19T01:07:29.475Z,5.10
2019-03-19T01:09:56.963Z,5.03
2019-03-19T01:12:24.451Z,5.07
2019-03-19T01:14:51.932Z,4.97
2019-03-19T01:17:19.411Z,4.97
2019-03-19T01:19:46.867Z,5.57
2019-03-19T01:22:14.648Z,5.43
2019-03-19T01:24:42.105Z,5.57
2019-03-19T01:27:09.566Z,6.40
2019-03-19T01:29:37.099Z,6.40
2019-03-19T01:32:04.551Z,5.50
2019-03-19T01:34:32.047Z,6.10
2019-03-19T01:36:59.542Z,6.60
2019-03-19T01:39:27.488Z,6.87
2019-03-19T01:41:54.977Z,7.03
2019-03-19T01:44:22.456Z,7.17
2019-03-19T01:46:49.914Z,7.57
2019-03-19T01:49:17.402Z,8.10
2019-03-19T01:51:44.893Z,7.90
2019-03-19T01:54:12.372Z,9.10
2019-03-19T01:56:41.030Z,8.77
2019-03-19T01:59:08.688Z,8.93
2019-03-19T02:01:36.149Z,9.37
2019-03-19T02:04:03.608Z,8.47
2019-03-19T02:06:31.129Z,7.97
2019-03-19T02:08:58.576Z,8.83
2019-03-19T02:11:26.040Z,9.10
2019-03-19T02:13:53.516Z,8.50
2019-03-19T02:16:21.000Z,8.60
2019-03-19T02:18:48.462Z,8.87
2019-03-19T02:21:15.956Z,8.27
2019-03-19T02:23:43.416Z,8.63
2019-03-19T02:26:16.442Z,8.87
2019-03-19T02:28:40.192Z,9.73
2019-03-19T02:31:07.683Z,9.57
2019-03-19T02:33:35.159Z,9.57
2019-03-19T02:36:02.689Z,10.23
2019-03-19T02:38:30.107Z,9.43
2019-03-19T02:40:57.573Z,9.03
2019-03-19T02:43:25.166Z,9.33
2019-03-19T02:45:52.670Z,8.87
2019-03-19T02:48:20.260Z,9.27
2019-03-19T02:50:47.702Z,10.07
2019-03-19T02:53:15.175Z,10.23
2019-03-19T02:55:42.698Z,11.10
2019-03-19T02:58:10.158Z,10.80
2019-03-19T03:00:37.625Z,11.10
2019-03-19T03:03:05.112Z,10.50
2019-03-19T03:05:32.578Z,9.93
2019-03-19T03:08:00.077Z,10.80
2019-03-19T03:10:27.822Z,11.20
2019-03-19T03:12:55.285Z,11.57
2019-03-19T03:15:22.755Z,11.97
2019-03-19T03:17:50.624Z,12.43
2019-03-19T03:20:18.493Z,12.97
2019-03-19T03:22:45.980Z,13.07
2019-03-19T03:25:13.495Z,12.97
2019-03-19T03:27:40.964Z,12.50
2019-03-19T03:30:09.832Z,12.17
2019-03-19T03:32:37.326Z,11.97
2019-03-19T03:35:05.085Z,11.23
2019-03-19T03:37:32.588Z,10.03
2019-03-19T03:40:00.066Z,10.77
2019-03-19T03:42:27.567Z,10.13
2019-03-19T03:44:55.030Z,10.13
2019-03-19T03:47:22.527Z,11.57
2019-03-19T03:49:49.975Z,12.50
2019-03-19T03:52:17.485Z,13.00
2019-03-19T03:54:44.958Z,13.93
2019-03-19T03:57:12.470Z,13.03
2019-03-19T03:59:39.952Z,13.03
2019-03-19T04:02:07.407Z,12.80
2019-03-19T04:04:34.895Z,14.30
2019-03-19T04:07:02.378Z,15.00
2019-03-19T04:09:29.853Z,15.53
2019-03-19T04:11:57.359Z,16.53
2019-03-19T04:14:24.806Z,16.57
2019-03-19T04:16:52.288Z,16.30
2019-03-19T04:19:19.745Z,16.53
2019-03-19T04:21:47.204Z,16.30
2019-03-19T04:24:14.653Z,15.80
2019-03-19T04:26:42.148Z,15.43
2019-03-19T04:29:09.596Z,15.17
2019-03-19T04:31:37.047Z,15.67
2019-03-19T04:34:04.562Z,14.23
2019-03-19T04:36:32.047Z,14.17
2019-03-19T04:38:59.507Z,14.27
2019-03-19T04:41:27.011Z,13.97
2019-03-19T04:43:54.549Z,12.47
2019-03-19T04:46:22.024Z,12.43
2019-03-19T04:48:49.566Z,12.47
2019-03-19T04:51:17.075Z,11.63
2019-03-19T04:53:44.493Z,12.13
2019-03-19T04:56:11.989Z,12.93
2019-03-19T04:58:39.444Z,14.90
2019-03-19T05:01:06.897Z,13.83
2019-03-19T05:03:34.382Z,14.93
2019-03-19T05:06:01.865Z,14.43
2019-03-19T05:08:29.354Z,13.27
2019-03-19T05:10:56.790Z,12.80
2019-03-19T05:13:24.240Z,13.47
2019-03-19T05:15:51.732Z,13.47
2019-03-19T05:18:19.206Z,14.87
2019-03-19T05:20:46.659Z,14.40
2019-03-19T05:23:14.138Z,13.70
2019-03-19T05:25:41.590Z,15.00
2019-03-19T05:28:09.478Z,14.50
2019-03-19T05:30:36.925Z,15.93
2019-03-19T05:33:04.386Z,14.90
2019-03-19T05:35:31.866Z,15.37
2019-03-19T05:37:59.311Z,16.10
2019-03-19T05:40:26.807Z,16.10
2019-03-19T05:42:54.280Z,16.00
2019-03-19T05:45:22.073Z,16.57
2019-03-19T05:47:49.534Z,16.20
2019-03-19T05:50:17.051Z,15.70
2019-03-19T05:52:44.528Z,14.13
2019-03-19T05:55:12.018Z,14.33
2019-03-19T05:57:48.883Z,14.13
2019-03-19T06:00:10.144Z,13.70
2019-03-19T06:02:37.637Z,12.63
2019-03-19T06:05:06.837Z,12.67
2019-03-19T06:07:34.306Z,13.70
2019-03-19T06:10:01.867Z,13.83
2019-03-19T06:12:29.320Z,15.90
2019-03-19T06:14:56.774Z,14.67
2019-03-19T06:17:24.283Z,14.47
2019-03-19T06:19:51.746Z,15.20
2019-03-19T06:22:19.272Z,14.80
2019-03-19T06:24:47.123Z,15.10
2019-03-19T06:27:14.590Z,15.83
2019-03-19T06:29:42.083Z,16.93
2019-03-19T06:32:09.584Z,16.47
2019-03-19T06:34:37.056Z,16.97
2019-03-19T06:37:04.522Z,16.43
2019-03-19T06:39:32.022Z,14.60
2019-03-19T06:41:59.502Z,12.80
2019-03-19T06:44:26.959Z,12.00
2019-03-19T06:46:54.444Z,11.83
2019-03-19T06:49:21.915Z,12.03
2019-03-19T06:51:49.388Z,12.63
2019-03-19T06:54:16.893Z,11.13
2019-03-19T06:56:44.395Z,24.77
2019-03-19T06:59:11.907Z,15.43
2019-03-19T07:01:39.403Z,11.97
2019-03-19T07:04:06.893Z,12.70
2019-03-19T07:06:34.347Z,11.80
2019-03-19T07:09:01.827Z,12.47
2019-03-19T07:11:29.325Z,12.20
2019-03-19T07:13:56.813Z,13.00
2019-03-19T07:16:24.327Z,13.27
2019-03-19T07:18:51.805Z,13.23
2019-03-19T07:21:19.550Z,13.73
2019-03-19T07:23:47.008Z,13.77
2019-03-19T07:26:14.569Z,12.90
2019-03-19T07:28:42.086Z,12.53
2019-03-19T07:31:09.547Z,11.70
2019-03-19T07:33:37.017Z,12.13
2019-03-19T07:36:06.323Z,10.70
2019-03-19T07:38:33.783Z,11.93
2019-03-19T07:41:01.328Z,12.23
2019-03-19T07:43:28.803Z,12.03
2019-03-19T07:45:56.263Z,18.07
2019-03-19T07:48:23.789Z,11.90
2019-03-19T07:50:51.292Z,11.87
2019-03-19T07:53:18.777Z,11.87
2019-03-19T07:55:46.248Z,12.03
2019-03-19T07:58:13.757Z,11.50
2019-03-19T08:00:41.232Z,11.50
2019-03-19T08:03:15.908Z,11.53
2019-03-19T08:05:38.033Z,11.33
2019-03-19T08:08:05.532Z,11.63
2019-03-19T08:10:32.989Z,12.00
2019-03-19T08:13:00.460Z,11.10
2019-03-19T08:15:27.951Z,11.10
2019-03-19T08:17:55.421Z,15.00
2019-03-19T08:20:22.952Z,11.00
2019-03-19T08:22:50.508Z,10.77
2019-03-19T08:25:18.042Z,10.73
2019-03-19T08:27:45.575Z,11.40
2019-03-19T08:30:14.761Z,9.87
2019-03-19T08:32:42.266Z,10.77
2019-03-19T08:35:09.753Z,10.73
2019-03-19T08:37:37.283Z,10.27
2019-03-19T08:40:05.787Z,9.03
2019-03-19T08:42:33.257Z,9.53
2019-03-19T08:45:00.808Z,8.70
2019-03-19T08:47:28.301Z,8.00
2019-03-19T08:49:55.766Z,8.30
2019-03-19T08:52:23.600Z,7.87
2019-03-19T08:54:51.150Z,8.40
2019-03-19T08:57:18.639Z,7.53
2019-03-19T08:59:46.169Z,16.63
2019-03-19T09:02:13.989Z,8.10
2019-03-19T09:04:41.490Z,6.97
2019-03-19T09:07:09.001Z,7.33
2019-03-19T09:09:36.517Z,7.00
2019-03-19T09:12:03.996Z,7.63
2019-03-19T09:14:31.513Z,7.57
2019-03-19T09:16:59.067Z,7.70
2019-03-19T09:19:26.588Z,7.60
2019-03-19T09:21:54.100Z,6.70
2019-03-19T09:24:21.580Z,7.13
2019-03-19T09:26:49.064Z,6.77
2019-03-19T09:29:17.356Z,5.90
2019-03-19T09:31:44.998Z,5.80
2019-03-19T09:34:12.573Z,5.80
2019-03-19T09:36:40.087Z,15.70
2019-03-19T09:39:08.142Z,7.23
2019-03-19T09:41:35.614Z,6.07
2019-03-19T09:44:03.391Z,6.17
2019-03-19T09:46:30.905Z,5.03
2019-03-19T09:48:58.413Z,5.33
2019-03-19T09:51:25.889Z,5.30
2019-03-19T09:53:53.403Z,5.10
2019-03-19T09:56:20.891Z,5.03
2019-03-19T09:58:48.396Z,5.70
2019-03-19T10:01:15.919Z,5.37
2019-03-19T10:03:43.430Z,5.70
2019-03-19T10:06:14.519Z,5.90
2019-03-19T10:08:42.166Z,5.17
2019-03-19T10:11:09.698Z,5.50
2019-03-19T10:13:37.179Z,5.27
2019-03-19T10:16:04.711Z,6.23
2019-03-19T10:18:32.231Z,4.93
2019-03-19T10:20:59.708Z,5.00
2019-03-19T10:23:27.305Z,5.00
2019-03-19T10:25:56.261Z,7.50
2019-03-19T10:28:23.787Z,4.33
2019-03-19T10:30:51.271Z,3.80
2019-03-19T10:33:18.781Z,4.60
2019-03-19T10:35:46.288Z,4.80
2019-03-19T10:38:13.877Z,4.60
2019-03-19T10:40:41.365Z,4.33
2019-03-19T10:43:08.890Z,4.77
2019-03-19T10:45:36.391Z,4.03
2019-03-19T10:48:03.903Z,4.67
2019-03-19T10:50:31.437Z,5.17
2019-03-19T10:52:58.924Z,4.73
2019-03-19T10:55:26.457Z,5.30
2019-03-19T10:57:53.950Z,5.73
2019-03-19T11:00:21.735Z,5.03
2019-03-19T11:02:49.368Z,5.90
2019-03-19T11:05:16.920Z,4.77
2019-03-19T11:07:44.412Z,3.47
2019-03-19T11:10:12.344Z,2.67
2019-03-19T11:12:39.876Z,3.10
2019-03-19T11:15:09.562Z,3.67
2019-03-19T11:17:37.097Z,2.93
2019-03-19T11:20:05.450Z,3.03
2019-03-19T11:22:33.628Z,5.30
2019-03-19T11:25:01.249Z,2.50
2019-03-19T11:27:28.736Z,3.17
2019-03-19T11:30:00.022Z,2.77
2019-03-19T11:32:25.566Z,3.20
2019-03-19T11:34:53.042Z,3.30
2019-03-19T11:37:20.537Z,2.90
2019-03-19T11:39:48.059Z,2.93
2019-03-19T11:42:15.565Z,3.40
2019-03-19T11:44:43.087Z,3.57
2019-03-19T11:47:10.591Z,3.53
2019-03-19T11:49:38.102Z,3.73
2019-03-19T11:52:05.817Z,4.03
2019-03-19T11:54:33.335Z,4.77
2019-03-19T11:57:00.836Z,4.77
2019-03-19T11:59:28.316Z,3.73
2019-03-19T12:01:55.848Z,3.30
2019-03-19T12:04:23.355Z,3.23
2019-03-19T12:06:50.815Z,3.80
2019-03-19T12:09:18.292Z,2.90
2019-03-19T12:11:45.927Z,2.90
2019-03-19T12:14:13.446Z,2.63
2019-03-19T12:16:41.008Z,3.53
2019-03-19T12:19:08.577Z,3.13
2019-03-19T12:21:36.187Z,3.50
2019-03-19T12:24:03.863Z,3.07
2019-03-19T12:26:31.416Z,3.40
2019-03-19T12:28:58.965Z,3.30
2019-03-19T12:31:26.528Z,3.07
2019-03-19T12:33:54.052Z,3.47
2019-03-19T12:36:21.592Z,2.67
2019-03-19T12:38:49.177Z,2.90
2019-03-19T12:41:16.735Z,2.77
2019-03-19T12:43:44.298Z,2.60
2019-03-19T12:46:11.864Z,2.30
2019-03-19T12:48:39.376Z,2.70
2019-03-19T12:51:07.108Z,2.53
2019-03-19T12:53:34.604Z,2.70
2019-03-19T12:56:02.097Z,2.93
2019-03-19T12:58:29.681Z,2.80
2019-03-19T13:00:57.195Z,2.53
2019-03-19T13:03:24.903Z,2.87
2019-03-19T13:05:52.417Z,3.10
2019-03-19T13:08:39.639Z,2.93
2019-03-19T13:11:07.106Z,2.63
2019-03-19T13:13:34.556Z,3.10
2019-03-19T13:16:02.123Z,2.30
2019-03-19T13:18:29.687Z,2.87
2019-03-19T13:20:57.236Z,2.87
2019-03-19T13:23:26.271Z,2.60
2019-03-19T13:25:56.584Z,2.73
2019-03-19T13:28:23.423Z,2.53
2019-03-19T13:30:50.960Z,2.30
2019-03-19T13:33:18.477Z,2.20
2019-03-19T13:35:46.046Z,2.07
2019-03-19T13:38:13.559Z,2.40
2019-03-19T13:40:41.079Z,2.10
2019-03-19T13:43:08.555Z,2.40
2019-03-19T13:45:36.076Z,2.37
2019-03-19T13:48:03.600Z,2.40
2019-03-19T13:50:31.102Z,2.03
2019-03-19T13:52:58.638Z,2.27
2019-03-19T13:55:26.163Z,1.93
2019-03-19T13:57:53.652Z,2.20
2019-03-19T14:00:21.189Z,2.87
2019-03-19T14:02:48.732Z,2.70
2019-03-19T14:05:16.309Z,2.17
2019-03-19T14:07:43.949Z,3.00
2019-03-19T14:10:12.777Z,1.93
2019-03-19T14:12:40.292Z,2.27
2019-03-19T14:15:10.015Z,2.00
2019-03-19T14:17:40.038Z,2.30
2019-03-19T14:20:09.543Z,2.40
2019-03-19T14:22:37.050Z,2.30
2019-03-19T14:25:05.014Z,2.17
2019-03-19T14:27:32.543Z,2.70
2019-03-19T14:30:00.055Z,2.20
2019-03-19T14:32:27.559Z,6.80
2019-03-19T14:34:55.088Z,3.07
2019-03-19T14:37:22.650Z,2.23
2019-03-19T14:39:50.142Z,2.17
2019-03-19T14:42:19.489Z,1.80
2019-03-19T14:44:47.005Z,2.00
2019-03-19T14:47:14.515Z,2.10
2019-03-19T14:49:46.591Z,2.97
2019-03-19T14:52:11.460Z,2.00
2019-03-19T14:54:38.917Z,2.13
2019-03-19T14:57:06.441Z,2.27
2019-03-19T14:59:33.934Z,2.00
2019-03-19T15:02:01.453Z,2.23
2019-03-19T15:04:28.946Z,2.13
2019-03-19T15:06:56.458Z,2.17
2019-03-19T15:09:23.978Z,2.77
2019-03-19T15:11:51.515Z,1.73
2019-03-19T15:14:19.025Z,1.83
2019-03-19T15:16:46.546Z,2.17
2019-03-19T15:19:14.157Z,2.17
2019-03-19T15:21:41.664Z,2.60
2019-03-19T15:24:09.169Z,1.93
2019-03-19T15:26:36.674Z,2.30
2019-03-19T15:29:04.273Z,2.70
2019-03-19T15:31:31.769Z,2.43
2019-03-19T15:33:59.271Z,2.10
2019-03-19T15:36:26.806Z,1.60
2019-03-19T15:38:54.320Z,10.33
2019-03-19T15:41:21.791Z,2.13
2019-03-19T15:43:49.288Z,2.00
2019-03-19T15:46:16.817Z,1.80
2019-03-19T15:48:44.349Z,1.97
2019-03-19T15:51:11.831Z,2.27
2019-03-19T15:53:39.409Z,2.03
2019-03-19T15:56:06.954Z,2.30
2019-03-19T15:58:34.484Z,1.70
2019-03-19T16:01:02.070Z,2.10
2019-03-19T16:03:29.566Z,2.23
2019-03-19T16:05:57.070Z,3.43
2019-03-19T16:08:24.626Z,2.53
2019-03-19T16:10:52.120Z,2.23
2019-03-19T16:13:19.638Z,1.70
2019-03-19T16:15:47.316Z,2.17
2019-03-19T16:18:14.801Z,2.20
2019-03-19T16:20:42.303Z,2.37
2019-03-19T16:23:09.825Z,2.20
2019-03-19T16:25:37.303Z,1.90
2019-03-19T16:28:04.796Z,1.90
2019-03-19T16:30:32.334Z,1.97
2019-03-19T16:32:59.854Z,2.10
2019-03-19T16:35:27.360Z,2.10
2019-03-19T16:37:54.830Z,2.93
2019-03-19T16:40:22.482Z,2.30
2019-03-19T16:42:50.078Z,2.93
2019-03-19T16:45:18.425Z,2.13
2019-03-19T16:47:46.204Z,2.07
2019-03-19T16:50:13.771Z,2.57
2019-03-19T16:52:41.253Z,2.73
2019-03-19T16:55:09.617Z,2.60
2019-03-19T16:57:37.136Z,2.80
2019-03-19T17:00:05.885Z,1.93
2019-03-19T17:02:33.488Z,1.90
2019-03-19T17:05:00.968Z,2.00
2019-03-19T17:07:28.490Z,1.83
2019-03-19T17:09:56.036Z,1.97
2019-03-19T17:12:23.548Z,2.73
2019-03-19T17:14:51.108Z,3.30
2019-03-19T17:17:18.676Z,3.97
2019-03-19T17:19:46.136Z,3.30
2019-03-19T17:22:13.634Z,2.87
2019-03-19T17:24:41.162Z,2.30
2019-03-19T17:27:08.709Z,2.03
2019-03-19T17:29:36.228Z,2.20
2019-03-19T17:32:12.398Z,2.33
2019-03-19T17:34:33.141Z,2.47
2019-03-19T17:37:00.628Z,3.47
2019-03-19T17:39:28.053Z,2.77
2019-03-19T17:41:55.610Z,3.13
2019-03-19T17:44:23.140Z,3.13
2019-03-19T17:46:50.660Z,4.00
2019-03-19T17:49:18.136Z,3.80
2019-03-19T17:51:45.716Z,3.80
2019-03-19T17:54:13.197Z,3.70
2019-03-19T17:56:40.701Z,3.20
2019-03-19T17:59:08.226Z,3.23
2019-03-19T18:01:36.014Z,3.10
2019-03-19T18:04:03.583Z,3.67
2019-03-19T18:06:31.157Z,3.73
2019-03-19T18:08:58.635Z,2.80
2019-03-19T18:11:26.136Z,2.90
2019-03-19T18:13:53.693Z,3.27
2019-03-19T18:16:21.171Z,2.93
2019-03-19T18:18:48.639Z,3.17
2019-03-19T18:21:16.159Z,3.50
2019-03-19T18:23:43.652Z,3.30
2019-03-19T18:26:11.142Z,2.50
2019-03-19T18:28:38.649Z,2.77
2019-03-19T18:31:06.187Z,74.13
2019-03-19T18:33:33.707Z,4.37
2019-03-19T18:36:01.212Z,3.17
2019-03-19T18:38:28.734Z,2.97
2019-03-19T18:40:56.300Z,2.80
2019-03-19T18:43:23.849Z,3.20
2019-03-19T18:45:51.351Z,2.80
2019-03-19T18:48:18.901Z,2.50
2019-03-19T18:50:46.379Z,2.37
2019-03-19T18:53:13.889Z,3.40
2019-03-19T18:55:41.637Z,2.80
2019-03-19T18:58:09.155Z,3.10
2019-03-19T19:00:36.668Z,4.33
2019-03-19T19:03:04.191Z,5.17
2019-03-19T19:05:31.716Z,5.40
2019-03-19T19:07:59.214Z,4.90
2019-03-19T19:10:26.739Z,4.90
2019-03-19T19:12:54.351Z,3.50
2019-03-19T19:15:21.853Z,3.73
2019-03-19T19:17:49.390Z,3.93
2019-03-19T19:20:16.999Z,3.43
2019-03-19T19:22:44.489Z,3.50
2019-03-19T19:25:12.653Z,3.37
2019-03-19T19:27:40.120Z,2.53
2019-03-19T19:30:10.587Z,32.33
2019-03-19T19:32:38.119Z,6.37
2019-03-19T19:35:05.805Z,3.63
2019-03-19T19:37:33.309Z,3.17
2019-03-19T19:40:00.813Z,2.60
2019-03-19T19:42:28.351Z,3.03
2019-03-19T19:44:55.907Z,2.70
2019-03-19T19:47:23.405Z,2.57
2019-03-19T19:49:50.892Z,2.37
2019-03-19T19:52:18.411Z,2.70
2019-03-19T19:54:45.903Z,3.20
2019-03-19T19:57:13.516Z,3.47
2019-03-19T19:59:41.013Z,3.67
2019-03-19T20:02:08.533Z,3.43
2019-03-19T20:04:36.035Z,3.80
2019-03-19T20:07:03.598Z,2.87
2019-03-19T20:09:31.124Z,3.80
2019-03-19T20:11:58.650Z,3.50
2019-03-19T20:14:26.156Z,3.90
2019-03-19T20:16:53.685Z,4.07
2019-03-19T20:19:21.151Z,5.77
2019-03-19T20:21:48.683Z,4.83
2019-03-19T20:24:16.165Z,6.33
2019-03-19T20:26:43.645Z,6.07
2019-03-19T20:29:11.145Z,5.70
2019-03-19T20:31:38.636Z,5.63
2019-03-19T20:34:06.159Z,5.13
2019-03-19T20:36:33.660Z,5.10
2019-03-19T20:39:01.147Z,5.83
2019-03-19T20:41:28.606Z,5.03
2019-03-19T20:43:56.128Z,4.40
2019-03-19T20:46:23.603Z,5.00
2019-03-19T20:48:51.131Z,5.47
2019-03-19T20:51:18.606Z,5.27
2019-03-19T20:53:46.109Z,6.17
2019-03-19T20:56:13.612Z,5.63
2019-03-19T20:58:43.735Z,5.37
2019-03-19T21:01:10.383Z,5.30
2019-03-19T21:03:37.894Z,5.57
2019-03-19T21:06:05.349Z,5.40
2019-03-19T21:08:32.850Z,5.43
2019-03-19T21:11:00.354Z,5.33
2019-03-19T21:13:27.866Z,5.80
2019-03-19T21:15:55.377Z,5.50
2019-03-19T21:18:22.876Z,6.70
2019-03-19T21:20:50.418Z,6.00
2019-03-19T21:23:17.999Z,5.13
2019-03-19T21:25:45.525Z,5.67
2019-03-19T21:28:14.243Z,6.57
2019-03-19T21:30:42.413Z,6.20
2019-03-19T21:33:09.941Z,6.23
2019-03-19T21:35:37.430Z,6.23
2019-03-19T21:38:04.947Z,5.40
2019-03-19T21:40:32.428Z,6.37
2019-03-19T21:42:59.912Z,6.17
2019-03-19T21:45:27.758Z,6.53
2019-03-19T21:47:55.302Z,6.70
2019-03-19T21:50:22.779Z,5.60
2019-03-19T21:52:50.296Z,5.70
2019-03-19T21:55:17.771Z,6.30
2019-03-19T21:57:45.441Z,6.90
2019-03-19T22:00:14.521Z,6.67
2019-03-19T22:02:41.962Z,6.80
2019-03-19T22:05:09.530Z,6.50
2019-03-19T22:07:37.043Z,6.07
2019-03-19T22:10:05.690Z,6.63
2019-03-19T22:12:33.179Z,6.33
2019-03-19T22:15:00.661Z,6.80
2019-03-19T22:17:28.169Z,7.17
2019-03-19T22:19:55.626Z,6.23
2019-03-19T22:22:23.315Z,7.03
2019-03-19T22:24:50.802Z,7.17
2019-03-19T22:27:18.310Z,7.53
2019-03-19T22:29:45.809Z,6.63
2019-03-19T22:32:13.302Z,6.17
2019-03-19T22:34:40.753Z,6.80
2019-03-19T22:37:08.212Z,6.93
2019-03-19T22:39:35.719Z,5.80
2019-03-19T22:42:03.222Z,6.40
2019-03-19T22:44:30.680Z,7.07
2019-03-19T22:46:58.189Z,7.27
2019-03-19T22:49:25.656Z,6.70
2019-03-19T22:51:53.134Z,5.97
2019-03-19T22:54:20.630Z,6.87
2019-03-19T22:56:48.137Z,6.93
2019-03-19T22:59:15.617Z,6.97
2019-03-19T23:01:43.115Z,6.93
2019-03-19T23:04:10.578Z,6.50
2019-03-19T23:06:38.074Z,6.17
2019-03-19T23:09:06.329Z,7.03
2019-03-19T23:11:33.830Z,6.50
2019-03-19T23:14:01.315Z,7.10
2019-03-19T23:16:28.764Z,7.53
2019-03-19T23:19:15.832Z,6.80
2019-03-19T23:21:43.311Z,6.80
2019-03-19T23:24:10.873Z,6.33
2019-03-19T23:26:38.350Z,6.57
2019-03-19T23:29:05.837Z,6.20
2019-03-19T23:31:33.332Z,6.17
2019-03-19T23:34:00.790Z,6.90
2019-03-19T23:36:28.272Z,6.77
2019-03-19T23:38:55.753Z,6.43
2019-03-19T23:41:23.260Z,6.93
2019-03-19T23:43:50.721Z,6.33
2019-03-19T23:46:18.188Z,6.17
2019-03-19T23:48:45.678Z,6.40
2019-03-19T23:51:13.195Z,7.00
2019-03-19T23:53:40.674Z,7.13
2019-03-19T23:56:08.186Z,7.13
2019-03-19T23:58:35.640Z,7.50
